Time;durP1;ratioP1;P1;durP2;ratioP2;P2;SDS_P1;SDS_P2;PMS_P1;PMS_P2;Temp;Humidity;BMP_temperature;BMP_pressure;BME280_temperature;BME280_humidity;BME280_pressure;Samples;Min_cycle;Max_cycle;Signal;HPM_P1;HPM_P2
2021/07/15 00:00:47;;;;;;;19.95;9.15;;;25.20;61.70;;;;;;5018797;28;20036;-44
2021/07/15 00:03:19;;;;;;;19.08;9.82;;;25.20;61.80;;;;;;5019047;28;20093;-41
2021/07/15 00:05:46;;;;;;;11.85;8.50;;;25.20;61.80;;;;;;5019264;28;20042;-43
2021/07/15 00:08:14;;;;;;;13.98;8.70;;;25.20;61.70;;;;;;5019013;28;20053;-41
2021/07/15 00:10:45;;;;;;;17.35;9.32;;;25.20;61.60;;;;;;5019123;28;20108;-43
2021/07/15 00:13:13;;;;;;;14.88;9.70;;;25.20;61.70;;;;;;5018756;28;20049;-42
2021/07/15 00:15:42;;;;;;;14.52;9.25;;;25.20;61.90;;;;;;5018517;28;20046;-43
2021/07/15 00:18:10;;;;;;;14.18;9.35;;;25.20;62.00;;;;;;5018470;28;20065;-45
2021/07/15 00:20:41;;;;;;;15.75;10.60;;;25.20;62.10;;;;;;5018715;28;20034;-45
2021/07/15 00:23:07;;;;;;;22.10;11.02;;;25.20;62.40;;;;;;5018501;28;20125;-42
2021/07/15 00:25:33;;;;;;;15.77;10.52;;;25.20;62.50;;;;;;5018679;28;20176;-43
2021/07/15 00:27:59;;;;;;;21.45;10.05;;;25.20;62.70;;;;;;5018619;28;20473;-44
2021/07/15 00:30:25;;;;;;;18.92;10.38;;;25.20;62.80;;;;;;5018375;28;20129;-46
2021/07/15 00:32:50;;;;;;;18.33;11.30;;;25.20;63.10;;;;;;5018616;28;20042;-44
2021/07/15 00:35:16;;;;;;;14.85;10.77;;;25.20;63.10;;;;;;5018034;28;20029;-43
2021/07/15 00:37:43;;;;;;;22.75;11.18;;;25.20;63.10;;;;;;5017717;28;20349;-42
2021/07/15 00:40:11;;;;;;;13.60;10.05;;;25.20;63.10;;;;;;5018139;28;20029;-41
2021/07/15 00:42:37;;;;;;;15.65;11.30;;;25.20;63.10;;;;;;5018221;28;20428;-41
2021/07/15 00:45:07;;;;;;;13.98;9.38;;;25.20;63.10;;;;;;5018061;28;20026;-43
2021/07/15 00:47:33;;;;;;;13.70;8.98;;;25.10;62.70;;;;;;5018480;28;20034;-42
2021/07/15 00:49:59;;;;;;;13.52;9.18;;;25.10;62.50;;;;;;5017832;28;20473;-43
2021/07/15 00:52:25;;;;;;;17.65;9.77;;;25.10;62.70;;;;;;5018072;28;20030;-43
2021/07/15 00:54:52;;;;;;;15.45;9.80;;;25.10;62.90;;;;;;5017684;28;20049;-41
2021/07/15 00:57:19;;;;;;;14.07;10.20;;;25.00;63.10;;;;;;5018379;28;20084;-43
2021/07/15 00:59:45;;;;;;;15.30;9.55;;;25.00;63.20;;;;;;5018081;28;20030;-43
2021/07/15 01:02:12;;;;;;;17.25;10.30;;;25.00;63.30;;;;;;5017876;28;20029;-44
2021/07/15 01:04:38;;;;;;;17.05;9.18;;;25.00;63.40;;;;;;5017763;28;20041;-43
2021/07/15 01:07:04;;;;;;;18.48;9.50;;;25.00;63.50;;;;;;5017787;28;20057;-44
2021/07/15 01:09:31;;;;;;;14.88;9.77;;;25.00;63.60;;;;;;5017585;28;20041;-43
2021/07/15 01:12:15;;;;;;;23.45;10.63;;;25.00;63.70;;;;;;5017677;28;20065;-42
2021/07/15 01:15:07;;;;;;;15.90;10.40;;;24.90;63.80;;;;;;5017143;28;20490;-42
2021/07/15 01:17:46;;;;;;;14.73;10.80;;;24.90;64.10;;;;;;5016779;28;20046;-42
2021/07/15 01:20:51;;;;;;;18.27;10.07;;;24.90;64.40;;;;;;5017736;28;20056;-45
2021/07/15 01:23:53;;;;;;;16.50;11.00;;;24.80;64.40;;;;;;5017514;28;20030;-41
2021/07/15 01:26:28;;;;;;;16.90;11.00;;;24.80;64.50;;;;;;5017466;28;20022;-43
2021/07/15 01:28:59;;;;;;;17.42;10.88;;;24.80;64.70;;;;;;5017717;28;20025;-42
2021/07/15 01:31:26;;;;;;;16.48;10.80;;;24.70;64.70;;;;;;5017375;28;20025;-42
2021/07/15 01:33:52;;;;;;;19.95;10.82;;;24.70;64.80;;;;;;5017244;28;20454;-43
2021/07/15 01:36:22;;;;;;;15.00;10.93;;;24.70;65.20;;;;;;5017434;28;20030;-43
2021/07/15 01:38:52;;;;;;;18.55;11.35;;;24.60;65.40;;;;;;5017241;28;20563;-41
2021/07/15 01:41:28;;;;;;;15.60;11.25;;;24.60;65.50;;;;;;5017532;28;20042;-42
2021/07/15 01:44:19;;;;;;;16.52;11.82;;;24.60;65.70;;;;;;5017413;28;20033;-43
2021/07/15 01:46:45;;;;;;;17.90;11.73;;;24.60;65.80;;;;;;5016998;28;20026;-42
2021/07/15 01:49:13;;;;;;;20.48;11.00;;;24.50;66.00;;;;;;5017242;28;20088;-41
2021/07/15 01:51:40;;;;;;;15.93;11.63;;;24.50;66.30;;;;;;5017280;28;20030;-41
2021/07/15 01:54:07;;;;;;;18.27;11.63;;;24.50;66.40;;;;;;5017036;28;20577;-44
2021/07/15 01:56:36;;;;;;;20.00;12.10;;;24.40;66.50;;;;;;5016996;28;20088;-42
2021/07/15 01:59:03;;;;;;;15.07;10.33;;;24.40;66.60;;;;;;5017042;28;20026;-41
2021/07/15 02:01:29;;;;;;;15.15;11.07;;;24.40;67.20;;;;;;5017009;28;20084;-42
2021/07/15 02:03:57;;;;;;;20.50;11.02;;;24.40;66.60;;;;;;5016906;28;20432;-43
2021/07/15 02:06:25;;;;;;;23.92;11.20;;;24.30;66.70;;;;;;5016816;28;20034;-47
2021/07/15 02:08:52;;;;;;;17.15;11.15;;;24.30;66.80;;;;;;5016809;28;20026;-43
2021/07/15 02:11:20;;;;;;;16.95;11.40;;;24.30;66.90;;;;;;5016909;28;20321;-43
2021/07/15 02:13:48;;;;;;;20.05;12.50;;;24.30;67.00;;;;;;5016399;28;20034;-43
2021/07/15 02:16:15;;;;;;;17.60;11.95;;;24.30;67.20;;;;;;5016782;28;20069;-44
2021/07/15 02:18:43;;;;;;;15.68;11.23;;;24.20;67.20;;;;;;5016696;28;20390;-43
2021/07/15 02:21:09;;;;;;;15.35;11.13;;;24.20;67.30;;;;;;5016808;28;20026;-43
2021/07/15 02:23:36;;;;;;;17.67;10.55;;;24.20;67.40;;;;;;5016674;28;20278;-42
2021/07/15 02:26:04;;;;;;;16.73;11.18;;;24.10;67.30;;;;;;5016381;28;20054;-42
2021/07/15 02:28:32;;;;;;;15.38;10.98;;;24.10;67.40;;;;;;5016443;28;20041;-44
2021/07/15 02:31:05;;;;;;;15.77;11.18;;;24.10;67.50;;;;;;5016426;28;20452;-42
2021/07/15 02:33:32;;;;;;;14.90;10.65;;;24.10;67.60;;;;;;5016468;28;20069;-42
2021/07/15 02:36:02;;;;;;;14.68;10.52;;;24.00;67.60;;;;;;5016227;28;20176;-43
2021/07/15 02:38:31;;;;;;;16.13;10.60;;;24.00;67.90;;;;;;5016152;28;20433;-41
2021/07/15 02:40:57;;;;;;;18.53;10.50;;;24.00;67.80;;;;;;5016597;28;20044;-43
2021/07/15 02:43:23;;;;;;;18.35;10.25;;;24.00;67.70;;;;;;5016306;28;20165;-41
2021/07/15 02:45:49;;;;;;;14.27;9.82;;;24.00;67.80;;;;;;5016502;28;20135;-43
2021/07/15 03:10:46;;;;;;;16.55;10.23;;;23.90;67.90;;;;;;5023080;28;20358;-44
2021/07/15 03:13:13;;;;;;;17.20;9.88;;;23.90;68.20;;;;;;5022594;28;20041;-42
2021/07/15 03:15:41;;;;;;;12.52;9.52;;;23.90;68.20;;;;;;5022306;28;20157;-44
2021/07/15 03:18:07;;;;;;;21.27;10.23;;;23.90;68.20;;;;;;5022676;28;20041;-42
2021/07/15 03:20:37;;;;;;;16.27;12.07;;;23.90;68.20;;;;;;5022462;28;20040;-43
2021/07/15 03:23:09;;;;;;;13.95;10.65;;;24.00;68.10;;;;;;5022663;28;20041;-42
2021/07/15 03:25:35;;;;;;;11.40;9.48;;;24.00;68.00;;;;;;5022512;28;20434;-42
2021/07/15 03:28:04;;;;;;;15.88;10.27;;;24.00;67.90;;;;;;5022538;28;20124;-41
2021/07/15 03:30:31;;;;;;;12.18;9.63;;;24.00;67.90;;;;;;5022747;28;20121;-44
2021/07/15 03:32:58;;;;;;;11.40;9.25;;;24.00;67.90;;;;;;5022508;28;20037;-43
2021/07/15 03:35:26;;;;;;;12.70;8.88;;;24.10;67.80;;;;;;5022207;28;20026;-44
2021/07/15 03:37:52;;;;;;;12.65;9.73;;;24.10;67.60;;;;;;5022145;28;20112;-43
2021/07/15 03:40:23;;;;;;;13.77;9.35;;;24.20;67.60;;;;;;5022363;28;20026;-43
2021/07/15 03:42:49;;;;;;;15.02;9.25;;;24.20;67.50;;;;;;5022218;28;20034;-43
2021/07/15 03:45:17;;;;;;;15.32;9.50;;;24.20;67.40;;;;;;5021949;28;20121;-43
2021/07/15 03:47:47;;;;;;;16.60;10.00;;;24.30;67.30;;;;;;5022410;28;20046;-44
2021/07/15 03:50:13;;;;;;;14.55;10.43;;;24.30;67.20;;;;;;5022570;28;20139;-42
2021/07/15 03:52:40;;;;;;;15.55;10.20;;;24.40;67.20;;;;;;5022298;28;20049;-47
2021/07/15 03:55:08;;;;;;;18.95;10.05;;;24.40;66.90;;;;;;5022028;28;20410;-44
2021/07/15 03:57:34;;;;;;;12.90;8.68;;;24.40;66.90;;;;;;5022268;28;20038;-45
2021/07/15 04:00:00;;;;;;;15.70;9.38;;;24.50;66.60;;;;;;5022101;28;20132;-44
2021/07/15 04:02:29;;;;;;;17.02;10.30;;;24.60;66.50;;;;;;5021988;28;20104;-47
2021/07/15 04:04:56;;;;;;;16.25;9.85;;;24.60;66.10;;;;;;5021570;28;20034;-43
2021/07/15 04:07:25;;;;;;;13.50;8.68;;;24.70;65.60;;;;;;5021767;28;20026;-43
2021/07/15 04:09:51;;;;;;;15.02;8.55;;;24.80;65.10;;;;;;5021833;28;20373;-43
2021/07/15 04:12:22;;;;;;;19.77;11.32;;;24.80;64.70;;;;;;5019375;28;20117;-44
2021/07/15 04:15:00;;;;;;;15.93;8.88;;;24.90;64.10;;;;;;5018436;28;20057;-43
2021/07/15 04:17:30;;;;;;;18.65;8.07;;;25.00;63.60;;;;;;5018693;28;20033;-42
2021/07/15 04:20:00;;;;;;;23.25;14.55;;;25.00;63.60;;;;;;5018811;28;20064;-43
2021/07/15 04:22:29;;;;;;;18.77;8.23;;;25.00;63.40;;;;;;5018540;28;20034;-44
2021/07/15 04:24:57;;;;;;;30.52;10.15;;;25.10;63.20;;;;;;5018286;28;20318;-44
2021/07/15 04:27:24;;;;;;;20.15;8.70;;;25.10;63.00;;;;;;5018529;28;20436;-42
2021/07/15 04:29:51;;;;;;;10.23;7.55;;;25.20;62.90;;;;;;5018364;28;20072;-43
2021/07/15 04:32:26;;;;;;;14.23;7.32;;;25.30;63.00;;;;;;5018511;28;20079;-44
2021/07/15 04:34:54;;;;;;;13.38;7.97;;;25.40;62.70;;;;;;5018241;28;20072;-41
2021/07/15 04:37:21;;;;;;;12.93;8.10;;;25.40;62.80;;;;;;5018488;28;20033;-41
2021/07/15 04:39:47;;;;;;;15.40;8.07;;;25.50;62.50;;;;;;5018149;28;20026;-46
2021/07/15 04:42:16;;;;;;;14.25;7.20;;;25.60;62.20;;;;;;5017834;28;20014;-42
2021/07/15 04:44:44;;;;;;;14.30;7.72;;;25.70;61.70;;;;;;5018203;28;20034;-42
2021/07/15 04:47:12;;;;;;;15.35;7.60;;;25.70;61.30;;;;;;5017920;28;20026;-42
2021/07/15 04:49:37;;;;;;;18.20;8.60;;;25.90;61.10;;;;;;5017538;28;20429;-42
2021/07/15 04:52:06;;;;;;;18.17;7.35;;;25.90;60.10;;;;;;5017984;28;20032;-45
2021/07/15 04:54:32;;;;;;;17.33;7.60;;;26.00;59.30;;;;;;5017390;28;20037;-42
2021/07/15 04:56:58;;;;;;;17.60;6.97;;;26.10;58.60;;;;;;5017792;28;20322;-43
2021/07/15 04:59:24;;;;;;;20.98;7.10;;;26.20;58.30;;;;;;5018137;28;20029;-45
2021/07/15 05:01:51;;;;;;;9.77;6.30;;;26.20;57.80;;;;;;5017993;28;20033;-45
2021/07/15 05:04:16;;;;;;;13.10;6.65;;;26.30;56.80;;;;;;5017987;28;20042;-46
2021/07/15 05:06:42;;;;;;;12.82;6.38;;;26.40;56.80;;;;;;5017585;28;20084;-44
2021/07/15 05:09:08;;;;;;;9.18;6.07;;;26.50;56.40;;;;;;5017805;28;20030;-44
2021/07/15 05:11:34;;;;;;;16.27;9.82;;;26.60;56.50;;;;;;5017551;28;20361;-45
2021/07/15 05:14:02;;;;;;;13.63;6.55;;;26.70;56.20;;;;;;5016288;28;20049;-42
2021/07/15 05:16:30;;;;;;;15.30;8.90;;;26.70;55.50;;;;;;5017548;28;20030;-43
2021/07/15 05:18:56;;;;;;;11.32;6.22;;;26.80;54.90;;;;;;5017351;28;20085;-43
2021/07/15 05:21:22;;;;;;;10.70;6.00;;;26.90;55.00;;;;;;5017636;28;20022;-43
2021/07/15 05:23:47;;;;;;;13.00;5.47;;;27.00;55.00;;;;;;5017072;28;20065;-44
2021/07/15 05:26:14;;;;;;;16.48;7.50;;;27.10;54.90;;;;;;5017328;28;20108;-44
2021/07/15 05:28:41;;;;;;;15.95;6.47;;;27.10;54.30;;;;;;5017329;28;20038;-42
2021/07/15 05:31:07;;;;;;;27.67;8.20;;;27.20;53.40;;;;;;5016836;28;20220;-43
2021/07/15 05:33:32;;;;;;;13.43;5.97;;;27.30;53.20;;;;;;5016870;28;20037;-45
2021/07/15 05:35:58;;;;;;;11.05;5.30;;;27.40;52.80;;;;;;5016518;28;20026;-43
2021/07/15 05:38:24;;;;;;;13.07;6.10;;;27.40;52.50;;;;;;5017127;28;20036;-41
2021/07/15 05:40:50;;;;;;;15.32;6.22;;;27.50;52.40;;;;;;5013570;28;20053;-43
2021/07/15 05:43:15;;;;;;;16.65;6.18;;;27.60;52.60;;;;;;5017122;28;20034;-43
2021/07/15 05:45:41;;;;;;;15.65;6.35;;;27.60;52.80;;;;;;5016601;28;20026;-44
2021/07/15 05:48:07;;;;;;;9.85;6.35;;;27.70;53.00;;;;;;5015668;28;20064;-44
2021/07/15 05:50:33;;;;;;;16.52;6.63;;;27.70;52.90;;;;;;5016339;28;20113;-43
2021/07/15 05:52:59;;;;;;;14.80;6.03;;;27.80;52.90;;;;;;5017043;28;20088;-42
2021/07/15 05:55:25;;;;;;;10.80;5.40;;;27.90;52.70;;;;;;5015642;28;20034;-43
2021/07/15 05:57:50;;;;;;;11.90;5.85;;;27.90;52.40;;;;;;5016455;28;20046;-41
2021/07/15 06:00:17;;;;;;;15.68;7.28;;;28.00;52.20;;;;;;5015880;28;20022;-49
2021/07/15 06:02:42;;;;;;;15.73;8.30;;;28.10;52.30;;;;;;5016623;28;20395;-44
2021/07/15 06:05:08;;;;;;;12.35;5.68;;;28.10;51.70;;;;;;5016120;28;20066;-46
2021/07/15 06:07:36;;;;;;;14.23;5.97;;;28.20;51.60;;;;;;5016665;28;20026;-43
2021/07/15 06:10:06;;;;;;;8.43;5.28;;;28.20;51.60;;;;;;5015464;28;20433;-44
2021/07/15 06:12:32;;;;;;;;;;;28.30;51.30;;;;;;5016941;28;20377;-46
2021/07/15 06:14:58;;;;;;;10.40;5.35;;;28.30;51.60;;;;;;5015181;28;19928;-44
2021/07/15 06:17:23;;;;;;;16.45;5.55;;;28.40;50.80;;;;;;5016339;28;20026;-47
2021/07/15 06:19:51;;;;;;;9.35;5.97;;;28.40;50.40;;;;;;5015805;28;20029;-45
2021/07/15 06:22:17;;;;;;;14.73;6.20;;;28.50;50.50;;;;;;5016303;28;20042;-44
2021/07/15 06:24:42;;;;;;;10.98;6.03;;;28.50;50.20;;;;;;5016014;28;20341;-43
2021/07/15 06:27:08;;;;;;;12.25;5.82;;;28.60;50.20;;;;;;5016169;28;20113;-44
2021/07/15 06:29:34;;;;;;;12.43;6.28;;;28.70;50.60;;;;;;5016512;28;20042;-46
2021/07/15 06:31:59;;;;;;;15.38;6.57;;;28.70;50.80;;;;;;5016392;28;20033;-45
2021/07/15 06:34:26;;;;;;;14.85;7.20;;;28.80;51.00;;;;;;5016111;28;20338;-44
2021/07/15 06:36:53;;;;;;;9.85;6.47;;;28.80;51.20;;;;;;5015389;28;20021;-44
2021/07/15 06:39:19;;;;;;;14.75;6.40;;;28.90;51.20;;;;;;5016089;28;20045;-41
2021/07/15 06:41:44;;;;;;;13.73;5.85;;;28.90;50.20;;;;;;5015895;28;20026;-42
2021/07/15 06:44:11;;;;;;;6.78;4.78;;;29.00;49.30;;;;;;5015215;28;20422;-43
2021/07/15 06:46:38;;;;;;;11.70;6.45;;;29.10;48.90;;;;;;5003104;28;20037;-42
2021/07/15 06:49:04;;;;;;;15.30;5.50;;;29.10;47.80;;;;;;4996527;28;20043;-41
2021/07/15 06:51:30;;;;;;;11.30;4.28;;;29.20;46.30;;;;;;4996035;28;20026;-43
2021/07/15 06:53:56;;;;;;;38.55;25.52;;;29.20;45.10;;;;;;4996073;28;20037;-42
2021/07/15 06:56:21;;;;;;;10.90;6.80;;;29.30;46.00;;;;;;4996070;28;20462;-42
2021/07/15 06:58:47;;;;;;;7.20;4.70;;;29.40;46.30;;;;;;4996089;28;20122;-43
2021/07/15 07:01:13;;;;;;;10.65;5.78;;;29.40;46.80;;;;;;4996417;28;20026;-44
2021/07/15 07:03:39;;;;;;;5.75;4.30;;;29.50;47.50;;;;;;4996265;28;20118;-43
2021/07/15 07:06:05;;;;;;;7.53;5.10;;;29.50;47.40;;;;;;4996426;28;20370;-45
2021/07/15 07:08:30;;;;;;;7.28;4.93;;;29.60;47.60;;;;;;4996300;28;20062;-44
2021/07/15 07:10:56;;;;;;;9.82;4.57;;;29.60;47.70;;;;;;4995853;28;20058;-44
2021/07/15 07:13:22;;;;;;;7.47;4.78;;;29.70;47.70;;;;;;4995952;28;20085;-43
2021/07/15 07:15:49;;;;;;;8.05;4.57;;;29.80;47.60;;;;;;4995709;28;20323;-42
2021/07/15 07:18:14;;;;;;;6.97;3.80;;;29.90;47.80;;;;;;4996313;28;20046;-45
2021/07/15 07:20:40;;;;;;;5.30;3.58;;;29.90;47.40;;;;;;4995540;28;20046;-43
2021/07/15 07:23:07;;;;;;;7.43;5.32;;;30.00;46.70;;;;;;4996057;28;20106;-45
2021/07/15 07:25:33;;;;;;;7.55;5.30;;;30.00;48.60;;;;;;4995485;28;20033;-43
2021/07/15 07:27:58;;;;;;;7.68;4.57;;;30.10;49.60;;;;;;4995916;28;20026;-43
2021/07/15 07:30:24;;;;;;;8.00;5.00;;;30.10;49.50;;;;;;4996009;28;20303;-44
2021/07/15 07:32:50;;;;;;;6.70;4.57;;;30.20;49.70;;;;;;4996149;28;20030;-43
2021/07/15 07:35:17;;;;;;;10.80;4.80;;;30.30;49.90;;;;;;4995735;28;20422;-42
2021/07/15 07:37:44;;;;;;;15.70;7.22;;;30.30;50.60;;;;;;4996126;28;20026;-42
2021/07/15 07:40:11;;;;;;;15.27;8.23;;;30.40;50.20;;;;;;4998017;28;20085;-44
2021/07/15 07:42:37;;;;;;;20.35;9.75;;;30.40;50.70;;;;;;5015125;28;20192;-44
2021/07/15 07:45:05;;;;;;;19.27;10.90;;;30.50;51.00;;;;;;5012484;28;20033;-45
2021/07/15 07:47:31;;;;;;;13.13;8.68;;;30.50;50.80;;;;;;5016874;28;20053;-42
2021/07/15 07:49:56;;;;;;;14.10;8.70;;;30.50;50.40;;;;;;5018243;28;20062;-44
2021/07/15 07:52:22;;;;;;;20.02;11.18;;;30.50;50.40;;;;;;5018851;28;20022;-45
2021/07/15 07:54:48;;;;;;;28.60;14.07;;;30.50;50.70;;;;;;5016732;28;20042;-44
2021/07/15 07:57:13;;;;;;;14.57;9.55;;;30.60;51.00;;;;;;5018999;28;20022;-42
2021/07/15 07:59:39;;;;;;;14.45;8.52;;;30.60;50.60;;;;;;5017883;28;20065;-44
2021/07/15 08:02:05;;;;;;;17.35;9.77;;;30.60;50.30;;;;;;5018537;28;20033;-42
2021/07/15 08:04:31;;;;;;;17.42;9.85;;;30.60;50.40;;;;;;5018351;28;20118;-42
2021/07/15 08:06:57;;;;;;;19.88;10.75;;;30.60;50.80;;;;;;5018652;28;20116;-42
2021/07/15 08:09:24;;;;;;;14.45;9.25;;;30.60;51.50;;;;;;5018082;28;20325;-42
2021/07/15 08:11:54;;;;;;;19.30;9.15;;;30.60;51.80;;;;;;5018124;28;20361;-42
2021/07/15 08:14:20;;;;;;;11.93;8.10;;;30.60;51.30;;;;;;5017823;28;20085;-46
2021/07/15 08:16:46;;;;;;;18.38;8.20;;;30.60;52.10;;;;;;5018380;28;20108;-44
2021/07/15 08:19:12;;;;;;;18.45;8.23;;;30.60;51.70;;;;;;5018513;28;20030;-43
2021/07/15 08:21:38;;;;;;;18.48;10.18;;;30.60;52.00;;;;;;5017682;28;20054;-42
2021/07/15 08:24:04;;;;;;;15.15;8.10;;;30.70;52.20;;;;;;5017862;28;20061;-42
2021/07/15 08:26:30;;;;;;;14.88;7.85;;;30.70;51.20;;;;;;5017687;28;20084;-44
2021/07/15 08:28:55;;;;;;;20.60;11.70;;;30.70;50.70;;;;;;5018029;28;20037;-41
2021/07/15 08:31:23;;;;;;;22.48;10.60;;;30.70;50.80;;;;;;5017189;28;20033;-42
2021/07/15 08:33:49;;;;;;;31.48;19.58;;;30.80;50.20;;;;;;5018069;28;20048;-43
2021/07/15 08:36:15;;;;;;;31.98;22.88;;;30.80;50.60;;;;;;5017166;28;20038;-45
2021/07/15 08:38:41;;;;;;;30.42;20.33;;;30.80;50.90;;;;;;5017973;28;20045;-44
2021/07/15 08:41:07;;;;;;;42.88;27.35;;;30.90;51.00;;;;;;5016967;28;20030;-43
2021/07/15 08:43:36;;;;;;;49.33;27.25;;;30.90;50.00;;;;;;5017995;28;20314;-42
2021/07/15 08:46:05;;;;;;;39.75;23.73;;;30.90;48.50;;;;;;5017323;28;20407;-42
2021/07/15 08:48:33;;;;;;;40.08;22.55;;;31.00;48.90;;;;;;5017814;28;20038;-41
2021/07/15 08:50:59;;;;;;;34.80;20.88;;;31.10;49.50;;;;;;5017121;28;20109;-43
2021/07/15 08:53:27;;;;;;;29.63;17.52;;;31.10;49.50;;;;;;5016979;28;20060;-45
2021/07/15 08:58:39;;;;;;;28.13;18.13;;;31.20;51.10;;;;;;5016785;28;20525;-43
2021/07/15 09:01:05;;;;;;;28.23;16.00;;;31.20;51.10;;;;;;5016875;28;20029;-43
2021/07/15 09:03:33;;;;;;;19.35;11.02;;;31.30;51.70;;;;;;5017325;28;20155;-41
2021/07/15 09:05:59;;;;;;;17.60;8.45;;;31.30;50.80;;;;;;5016879;28;20092;-42
2021/07/15 09:08:25;;;;;;;17.73;8.40;;;31.40;50.50;;;;;;5017303;28;20038;-45
2021/07/15 09:10:51;;;;;;;11.73;8.02;;;31.50;50.30;;;;;;5016526;28;20073;-45
2021/07/15 09:13:19;;;;;;;16.92;6.88;;;31.50;50.60;;;;;;5017304;28;20037;-42
2021/07/15 09:15:48;;;;;;;9.45;4.80;;;31.60;50.40;;;;;;5016221;28;20084;-44
2021/07/15 09:18:15;;;;;;;11.27;6.75;;;31.60;50.60;;;;;;5017356;28;20092;-45
2021/07/15 09:20:42;;;;;;;14.57;5.25;;;31.60;50.10;;;;;;5016511;28;20018;-45
2021/07/15 09:23:10;;;;;;;11.25;5.75;;;31.60;50.10;;;;;;5016980;28;20112;-44
2021/07/15 09:25:39;;;;;;;6.47;3.88;;;31.60;49.80;;;;;;5016558;28;20092;-43
2021/07/15 09:28:09;;;;;;;6.80;3.88;;;31.60;49.10;;;;;;5017238;28;20045;-45
2021/07/15 09:30:35;;;;;;;9.65;4.25;;;31.70;49.60;;;;;;5016596;28;20037;-46
2021/07/15 09:33:05;;;;;;;8.30;5.80;;;31.70;49.00;;;;;;5017218;28;20034;-45
2021/07/15 09:35:40;;;;;;;6.95;4.53;;;31.70;48.80;;;;;;5016360;28;20053;-45
2021/07/15 09:38:11;;;;;;;10.70;4.50;;;31.80;48.60;;;;;;5016935;28;20092;-44
2021/07/15 09:40:45;;;;;;;7.47;4.43;;;31.80;48.00;;;;;;5016114;28;20054;-43
2021/07/15 09:43:17;;;;;;;8.32;4.50;;;31.80;48.60;;;;;;5015758;28;20025;-45
2021/07/15 09:45:48;;;;;;;7.90;3.70;;;31.90;48.50;;;;;;5016802;28;20299;-43
2021/07/15 09:48:19;;;;;;;7.13;4.28;;;31.90;48.50;;;;;;5016837;28;20038;-43
2021/07/15 09:50:51;;;;;;;7.63;3.83;;;31.90;48.30;;;;;;5016782;28;20026;-44
2021/07/15 09:53:22;;;;;;;10.13;4.78;;;31.90;48.10;;;;;;5016466;28;20041;-45
2021/07/15 09:55:57;;;;;;;8.82;4.68;;;31.90;48.50;;;;;;5016087;28;20113;-43
2021/07/15 09:58:23;;;;;;;7.78;4.45;;;31.90;48.60;;;;;;5016865;28;20042;-42
2021/07/15 10:00:48;;;;;;;8.57;3.60;;;32.00;48.80;;;;;;5015885;28;20026;-44
2021/07/15 10:03:15;;;;;;;8.57;4.13;;;32.00;48.50;;;;;;5016165;28;20048;-44
2021/07/15 10:05:52;;;;;;;7.75;3.67;;;32.00;48.70;;;;;;5015692;28;20030;-43
2021/07/15 10:08:38;;;;;;;13.23;5.72;;;32.00;48.90;;;;;;5015852;28;20333;-45
2021/07/15 10:11:24;;;;;;;8.48;4.68;;;32.10;47.70;;;;;;5014956;28;20041;-44
2021/07/15 10:14:03;;;;;;;9.25;5.50;;;32.10;48.40;;;;;;5016259;28;20038;-44
2021/07/15 10:16:31;;;;;;;10.05;5.32;;;32.10;47.60;;;;;;5016188;28;20033;-43
2021/07/15 10:18:57;;;;;;;7.25;4.20;;;32.20;47.60;;;;;;5016314;28;20065;-44
2021/07/15 10:21:28;;;;;;;5.28;4.20;;;32.20;47.50;;;;;;5014717;28;20030;-44
2021/07/15 10:23:55;;;;;;;8.77;3.70;;;32.30;47.40;;;;;;5016264;28;20029;-42
2021/07/15 10:26:21;;;;;;;6.65;4.05;;;32.40;47.60;;;;;;5016098;28;20393;-44
2021/07/15 10:28:50;;;;;;;6.00;3.92;;;32.40;47.70;;;;;;5012045;28;20464;-45
2021/07/15 10:31:18;;;;;;;6.07;3.58;;;32.40;47.40;;;;;;5015819;28;20038;-42
2021/07/15 10:33:45;;;;;;;5.50;3.53;;;32.50;46.90;;;;;;5015788;28;20034;-43
2021/07/15 10:36:12;;;;;;;9.70;4.10;;;32.50;46.70;;;;;;5015683;28;20369;-44
2021/07/15 10:38:43;;;;;;;7.32;4.40;;;32.60;46.70;;;;;;5015642;28;20535;-45
2021/07/15 10:41:10;;;;;;;11.75;5.03;;;32.60;46.90;;;;;;5015617;28;20038;-46
2021/07/15 10:43:36;;;;;;;6.00;3.35;;;32.60;47.10;;;;;;5012385;28;20121;-43
2021/07/15 10:46:04;;;;;;;7.30;3.08;;;32.70;48.00;;;;;;5015869;28;20030;-44
2021/07/15 10:48:33;;;;;;;10.25;3.60;;;32.80;48.40;;;;;;5015198;28;20045;-45
2021/07/15 10:51:00;;;;;;;8.80;5.15;;;32.80;46.60;;;;;;5014869;28;20052;-43
2021/07/15 10:53:30;;;;;;;7.50;4.18;;;32.90;46.30;;;;;;5015316;28;20374;-44
2021/07/15 10:55:57;;;;;;;6.60;3.58;;;33.00;46.30;;;;;;5015371;28;20034;-42
2021/07/15 10:58:46;;;;;;;9.88;4.45;;;33.00;45.80;;;;;;5014664;28;20419;-44
2021/07/15 11:01:30;;;;;;;12.15;3.80;;;32.90;45.80;;;;;;5011867;28;20073;-43
2021/07/15 11:04:21;;;;;;;8.48;5.15;;;33.00;45.80;;;;;;5015178;28;20484;-44
2021/07/15 11:06:52;;;;;;;6.75;3.60;;;33.10;45.80;;;;;;5015059;28;20084;-45
2021/07/15 11:09:23;;;;;;;6.18;4.32;;;33.10;46.40;;;;;;5015339;28;20030;-43
2021/07/15 11:11:50;;;;;;;7.35;4.50;;;33.20;45.80;;;;;;5014713;28;20022;-44
2021/07/15 11:14:59;;;;;;;6.90;4.57;;;33.30;45.80;;;;;;5014667;28;20072;-44
2021/07/15 11:17:27;;;;;;;9.13;3.08;;;33.40;45.60;;;;;;4951998;29;20543;-44
2021/07/15 11:20:02;;;;;;;7.28;3.05;;;33.50;46.20;;;;;;5006910;28;20041;-44
2021/07/15 11:22:55;;;;;;;21.48;3.35;;;33.60;45.70;;;;;;5017204;28;20054;-44
2021/07/15 11:25:32;;;;;;;7.70;2.95;;;33.70;45.50;;;;;;5012412;28;20068;-42
2021/07/15 11:28:23;;;;;;;7.65;4.32;;;33.80;45.20;;;;;;5018968;28;20113;-43
2021/07/15 11:30:57;;;;;;;6.50;3.60;;;33.90;45.10;;;;;;5019314;28;20108;-43
2021/07/15 11:33:22;;;;;;;9.57;3.80;;;33.90;45.10;;;;;;5019128;28;20099;-46
2021/07/15 11:35:57;;;;;;;9.85;4.50;;;34.00;44.90;;;;;;5019222;28;20474;-43
2021/07/15 11:38:28;;;;;;;9.25;3.40;;;34.00;44.90;;;;;;5018672;28;20418;-42
2021/07/15 11:40:54;;;;;;;8.60;3.60;;;34.10;45.10;;;;;;5018953;28;20112;-45
2021/07/15 11:43:32;;;;;;;7.50;4.03;;;34.10;45.00;;;;;;5018224;28;20030;-43
2021/07/15 11:46:01;;;;;;;8.43;4.10;;;34.30;45.20;;;;;;5018662;28;20076;-43
2021/07/15 11:48:46;;;;;;;3.80;2.80;;;34.40;45.10;;;;;;5018506;28;20354;-43
2021/07/15 11:51:23;;;;;;;5.82;3.42;;;34.60;43.90;;;;;;5018856;28;20053;-42
2021/07/15 11:54:23;;;;;;;7.00;3.25;;;34.80;43.80;;;;;;5018861;28;20034;-45
2021/07/15 11:57:09;;;;;;;9.55;4.70;;;35.00;42.80;;;;;;5018569;28;20053;-42
2021/07/15 11:59:38;;;;;;;9.80;3.20;;;35.10;42.80;;;;;;5017654;28;20045;-43
2021/07/15 12:02:10;;;;;;;8.48;4.35;;;35.30;41.90;;;;;;5017688;28;20424;-47
2021/07/15 12:05:06;;;;;;;4.35;3.10;;;35.40;42.40;;;;;;5018037;28;20038;-42
2021/07/15 12:07:33;;;;;;;4.63;3.33;;;35.50;41.50;;;;;;5018727;28;20414;-43
2021/07/15 12:10:01;;;;;;;7.28;4.57;;;35.70;40.70;;;;;;5018403;28;20114;-43
2021/07/15 12:12:27;;;;;;;8.32;3.67;;;35.80;41.20;;;;;;5018877;28;20036;-43
2021/07/15 12:14:53;;;;;;;5.68;3.33;;;36.00;40.20;;;;;;5017474;28;20057;-43
2021/07/15 12:17:20;;;;;;;9.80;4.43;;;36.20;40.10;;;;;;5018134;28;20033;-43
2021/07/15 12:19:59;;;;;;;8.23;4.32;;;36.30;40.00;;;;;;5017886;28;20030;-43
2021/07/15 12:22:27;;;;;;;6.88;4.00;;;36.50;39.60;;;;;;5018166;28;20052;-44
2021/07/15 12:25:16;;;;;;;8.48;3.97;;;36.50;38.40;;;;;;5017988;28;20264;-42
2021/07/15 12:27:43;;;;;;;4.10;2.95;;;36.70;38.60;;;;;;4991815;28;20057;-44
2021/07/15 12:30:10;;;;;;;7.13;2.70;;;36.70;37.40;;;;;;5007192;28;20034;-46
2021/07/15 12:32:39;;;;;;;5.43;3.85;;;36.80;36.80;;;;;;5018185;28;20310;-42
2021/07/15 12:35:15;;;;;;;8.70;3.60;;;36.90;36.60;;;;;;5016700;28;20073;-42
2021/07/15 12:37:41;;;;;;;7.25;3.83;;;37.10;36.60;;;;;;5017895;28;20042;-43
2021/07/15 12:40:08;;;;;;;8.00;3.65;;;37.20;36.60;;;;;;5017903;28;20081;-45
2021/07/15 12:42:35;;;;;;;5.85;3.65;;;37.30;36.60;;;;;;5018032;28;20076;-43
2021/07/15 12:45:17;;;;;;;5.55;3.33;;;37.50;36.50;;;;;;5017422;28;20038;-43
2021/07/15 12:48:02;;;;;;;6.28;3.10;;;37.70;36.40;;;;;;5017336;28;20104;-42
2021/07/15 12:50:30;;;;;;;7.68;3.80;;;37.80;35.90;;;;;;5010067;28;20050;-43
2021/07/15 12:53:18;;;;;;;4.10;3.20;;;37.90;36.20;;;;;;5017936;28;20365;-42
2021/07/15 12:55:44;;;;;;;6.57;3.22;;;38.10;36.20;;;;;;5017329;28;20374;-42
2021/07/15 12:58:11;;;;;;;5.38;3.00;;;38.20;36.60;;;;;;5017554;28;20030;-43
2021/07/15 13:00:39;;;;;;;5.40;3.65;;;38.30;36.10;;;;;;5017523;28;20022;-43
2021/07/15 13:03:05;;;;;;;9.60;4.03;;;38.30;36.00;;;;;;5016922;28;20426;-43
2021/07/15 13:05:32;;;;;;;4.70;4.00;;;38.40;36.00;;;;;;5017312;28;20458;-46
2021/07/15 13:07:58;;;;;;;4.93;3.40;;;38.50;36.10;;;;;;5017395;28;20033;-43
2021/07/15 13:15:39;;;;;;;7.65;3.47;;;38.50;35.50;;;;;;5016949;28;20093;-43
2021/07/15 13:18:12;;;;;;;9.60;3.90;;;38.60;35.40;;;;;;5017360;28;20065;-43